SAVT/REL METAR and TAF weather

Enter ICAO airport designator
Station Type Date Time Source
SAVT METAR 2020/08/01 16:30 UTC NOAA

SAVT 011630Z 36025G42KT 9999 VCDS 12/02 Q1003


Station Type Date Time Source
SAVT Decoded METAR 2020/08/01 16:30 UTC NOAA

Trelew Aerodrome, Argentina (SAVT) 43-12S 065-16W 43M
Aug 01, 2020 - 12:30 PM EDT / 2020.08.01 1630 UTC
Wind: from the N (360 degrees) at 29 MPH (25 KT) gusting to 48 MPH (42 KT):0
Visibility: greater than 7 mile(s):0
Weather: duststorm in the vicinity
Temperature: 53 F (12 C)
Dew Point: 35 F (2 C)
Relative Humidity: 50%
Pressure (altimeter): 29.62 in. Hg (1003 hPa)
ob: SAVT 011630Z 36025G42KT 9999 VCDS 12/02 Q1003
cycle: 16

Station Type Date Time Source
SAVT TAF 2019/04/29 08:53 UTC NOAA

TAF
AMD SAVT 290800Z 2908/3006 27025G40KT 9999 SCT020 BKN035 TX16/2919Z TN07/3006Z
TEMPO 2911/2914 7000 -SHRA OVC020 SCT030
BECMG 3002/3004 25015KT

Example: see airport list